createdAt,value
2024-02-13T00:05:25.524Z,999.9
2024-02-13T00:10:58.368Z,999.9
2024-02-13T00:16:28.881Z,10.0
2024-02-13T00:22:00.344Z,15.5
2024-02-13T00:27:32.024Z,999.9
2024-02-13T00:33:04.496Z,17.3
2024-02-13T00:38:35.512Z,28.6
2024-02-13T00:44:07.206Z,999.9
2024-02-13T00:49:39.302Z,73.1
2024-02-13T00:55:10.268Z,139.1
2024-02-13T01:00:46.170Z,122.1
2024-02-13T01:06:18.084Z,152.2
2024-02-13T01:11:49.786Z,163.6
2024-02-13T01:17:28.064Z,140.9
2024-02-13T01:22:59.903Z,162.7
2024-02-13T01:28:31.417Z,183.2
2024-02-13T01:34:03.193Z,167.4
2024-02-13T01:39:34.423Z,192.9
2024-02-13T01:45:06.255Z,187.5
2024-02-13T01:50:38.034Z,180.5
2024-02-13T01:56:09.505Z,146.9
2024-02-13T02:01:45.619Z,128.4
2024-02-13T02:07:17.262Z,175.8
2024-02-13T02:12:48.537Z,208.1
2024-02-13T02:18:20.212Z,177.3
2024-02-13T02:23:52.831Z,152.7
2024-02-13T02:29:23.475Z,133.5
2024-02-13T02:34:55.430Z,84.2
2024-02-13T02:40:27.172Z,31.7
2024-02-13T02:45:58.276Z,9.6
2024-02-13T02:51:30.235Z,999.9
2024-02-13T02:57:01.666Z,999.9
2024-02-13T03:02:37.618Z,999.9
2024-02-13T03:08:09.232Z,999.9
2024-02-13T03:13:40.836Z,999.9
2024-02-13T03:19:12.734Z,999.9
2024-02-13T03:24:44.120Z,999.9
2024-02-13T03:30:15.772Z,999.9
2024-02-13T03:35:47.496Z,999.9
2024-02-13T03:41:18.993Z,999.9
2024-02-13T03:46:51.076Z,10.8
2024-02-13T03:52:22.307Z,999.9
2024-02-13T03:57:53.908Z,23.8
2024-02-13T04:03:30.585Z,999.9
2024-02-13T04:09:02.616Z,23.6
2024-02-13T04:14:33.553Z,30.6
2024-02-13T04:20:04.830Z,13.5
2024-02-13T04:25:37.490Z,999.9
2024-02-13T04:31:08.042Z,999.9
2024-02-13T04:36:39.954Z,44.7
2024-02-13T04:42:11.974Z,60.6
2024-02-13T04:47:43.033Z,87.0
2024-02-13T04:53:15.040Z,105.0
2024-02-13T04:58:46.190Z,137.7
2024-02-13T05:04:22.167Z,155.1
2024-02-13T05:09:54.076Z,136.4
2024-02-13T05:15:25.424Z,174.2
2024-02-13T05:20:57.332Z,140.2
2024-02-13T05:26:28.964Z,170.3
2024-02-13T05:32:00.586Z,144.5
2024-02-13T05:37:32.012Z,149.0
2024-02-13T05:43:04.167Z,175.1
2024-02-13T05:48:35.195Z,168.4
2024-02-13T05:54:06.896Z,150.1
2024-02-13T05:59:39.194Z,184.5
2024-02-13T06:05:14.832Z,164.5
2024-02-13T06:10:46.127Z,170.3
2024-02-13T06:16:17.728Z,167.0
2024-02-13T06:21:49.333Z,151.8
2024-02-13T06:27:21.259Z,142.1
2024-02-13T06:32:52.649Z,159.3
2024-02-13T06:38:24.460Z,179.9
2024-02-13T06:43:56.164Z,173.5
2024-02-13T06:49:29.995Z,165.2
2024-02-13T06:54:59.199Z,159.0
2024-02-13T07:00:30.711Z,166.2
2024-02-13T07:06:06.916Z,177.8
2024-02-13T07:11:38.652Z,151.4
2024-02-13T07:17:10.043Z,156.6
2024-02-13T07:22:41.878Z,153.1
2024-02-13T07:28:13.542Z,169.0
2024-02-13T07:33:45.370Z,159.6
2024-02-13T07:39:17.064Z,147.6
2024-02-13T07:44:48.721Z,159.0
2024-02-13T07:50:20.113Z,152.1
2024-02-13T07:55:51.396Z,140.8
2024-02-13T08:01:23.025Z,168.1
2024-02-13T08:06:59.078Z,156.9
2024-02-13T08:12:30.641Z,170.4
2024-02-13T08:18:02.626Z,136.3
2024-02-13T08:23:33.947Z,151.7
2024-02-13T08:29:05.784Z,180.9
2024-02-13T08:34:37.638Z,197.9
2024-02-13T08:40:08.809Z,166.7
2024-02-13T08:45:40.445Z,167.2
2024-02-13T08:51:12.391Z,156.9
2024-02-13T08:56:44.076Z,50.8
2024-02-13T09:02:15.416Z,120.6
2024-02-13T09:07:53.499Z,140.0
2024-02-13T09:13:24.969Z,161.9
2024-02-13T09:18:57.286Z,155.8
2024-02-13T09:24:28.430Z,153.8
2024-02-13T09:29:59.885Z,164.6
2024-02-13T09:35:31.553Z,172.1
2024-02-13T09:41:03.198Z,225.2
2024-02-13T09:46:35.033Z,189.2
2024-02-13T09:52:06.388Z,101.3
2024-02-13T09:57:38.196Z,85.2
2024-02-13T10:03:09.746Z,80.1
2024-02-13T10:08:48.103Z,66.9
2024-02-13T10:14:19.443Z,46.2
2024-02-13T10:19:50.963Z,55.0
2024-02-13T10:25:24.672Z,28.0
2024-02-13T10:30:54.351Z,22.5
2024-02-13T10:36:26.231Z,26.4
2024-02-13T10:41:57.629Z,21.6
2024-02-13T10:47:29.072Z,43.1
2024-02-13T10:53:01.516Z,36.3
2024-02-13T10:58:32.853Z,21.3
2024-02-13T11:04:04.374Z,21.5
2024-02-13T11:09:43.170Z,27.2
2024-02-13T11:15:13.848Z,79.7
2024-02-13T11:20:45.484Z,81.4
2024-02-13T11:26:16.911Z,84.1
2024-02-13T11:31:48.472Z,125.2
2024-02-13T11:37:20.293Z,102.7
2024-02-13T11:42:51.688Z,116.0
2024-02-13T11:48:23.864Z,132.0
2024-02-13T11:53:55.542Z,210.9
2024-02-13T11:59:26.645Z,244.1
2024-02-13T12:04:58.217Z,190.8
2024-02-13T12:10:34.235Z,168.3
2024-02-13T12:16:06.174Z,84.4
2024-02-13T12:21:37.628Z,75.8
2024-02-13T12:27:09.288Z,60.7
2024-02-13T12:32:40.900Z,49.3
2024-02-13T12:38:12.460Z,134.8
2024-02-13T12:43:44.129Z,192.5
2024-02-13T12:49:15.756Z,233.2
2024-02-13T12:54:47.637Z,265.4
2024-02-13T13:00:18.861Z,203.3
2024-02-13T13:05:50.842Z,232.4
2024-02-13T13:11:28.741Z,275.1
2024-02-13T13:17:00.434Z,234.7
2024-02-13T13:22:31.922Z,205.3
2024-02-13T13:28:03.588Z,154.4
2024-02-13T13:33:35.559Z,182.7
2024-02-13T13:39:06.877Z,276.5
2024-02-13T13:44:38.722Z,251.4
2024-02-13T13:50:10.101Z,269.6
2024-02-13T13:55:41.570Z,251.9
2024-02-13T14:01:13.250Z,147.1
2024-02-13T14:06:44.776Z,287.0
2024-02-13T14:12:22.816Z,242.3
2024-02-13T14:17:54.882Z,220.6
2024-02-13T14:23:26.252Z,271.5
2024-02-13T14:28:57.750Z,177.9
2024-02-13T14:34:29.606Z,177.5
2024-02-13T14:40:00.952Z,241.4
2024-02-13T14:45:32.606Z,200.9
2024-02-13T14:51:04.738Z,265.9
2024-02-13T14:56:36.029Z,191.8
2024-02-13T15:02:07.629Z,302.2
2024-02-13T15:07:39.181Z,195.3
2024-02-13T15:13:15.337Z,156.8
2024-02-13T15:18:47.188Z,188.4
2024-02-13T15:24:18.345Z,276.8
2024-02-13T15:29:50.242Z,235.7
2024-02-13T15:35:21.896Z,181.7
2024-02-13T15:40:53.258Z,245.0
2024-02-13T15:46:25.217Z,197.7
2024-02-13T15:51:57.005Z,170.4
2024-02-13T15:57:28.155Z,180.5
2024-02-13T16:02:59.767Z,189.1
2024-02-13T16:14:07.404Z,176.8
2024-02-13T16:19:39.696Z,217.5
2024-02-13T16:25:10.878Z,206.9
2024-02-13T16:30:44.386Z,186.0
2024-02-13T16:36:14.571Z,167.0
2024-02-13T16:41:46.141Z,114.5
2024-02-13T16:47:17.617Z,74.2
2024-02-13T16:52:48.802Z,45.5
2024-02-13T16:58:20.534Z,39.7
2024-02-13T17:03:52.304Z,999.9
2024-02-13T17:09:23.892Z,999.9
2024-02-13T17:15:01.794Z,999.9
2024-02-13T17:20:33.562Z,999.9
2024-02-13T17:26:05.227Z,999.9
2024-02-13T17:31:36.632Z,999.9
2024-02-13T17:37:08.704Z,999.9
2024-02-13T17:42:39.915Z,999.9
2024-02-13T17:48:12.293Z,999.9
2024-02-13T17:53:43.384Z,999.9
2024-02-13T17:59:14.735Z,999.9
2024-02-13T18:04:46.528Z,999.9
2024-02-13T18:10:18.342Z,999.9
2024-02-13T18:15:56.179Z,999.9
2024-02-13T18:21:27.853Z,999.9
2024-02-13T18:26:59.386Z,999.9
2024-02-13T18:32:31.566Z,999.9
2024-02-13T18:38:02.584Z,999.9
2024-02-13T18:43:34.293Z,999.9
2024-02-13T18:49:05.854Z,999.9
2024-02-13T18:54:37.576Z,999.9
2024-02-13T19:00:09.291Z,999.9
2024-02-13T19:05:40.851Z,999.9
2024-02-13T19:11:12.274Z,999.9
2024-02-13T19:16:50.254Z,999.9
2024-02-13T19:22:22.334Z,999.9
2024-02-13T19:27:53.599Z,999.9
2024-02-13T19:33:25.469Z,999.9
2024-02-13T19:38:56.844Z,999.9
2024-02-13T19:44:28.515Z,999.9
2024-02-13T19:50:01.007Z,999.9
2024-02-13T19:55:31.745Z,999.9
2024-02-13T20:01:03.401Z,999.9
2024-02-13T20:06:35.099Z,999.9
2024-02-13T20:12:06.899Z,999.9
2024-02-13T20:17:44.712Z,999.9
2024-02-13T20:23:16.372Z,999.9
2024-02-13T20:28:47.871Z,999.9
2024-02-13T20:34:19.574Z,999.9
2024-02-13T20:39:51.194Z,999.9
2024-02-13T20:45:23.368Z,999.9
2024-02-13T20:50:54.436Z,999.9
2024-02-13T20:56:26.393Z,999.9
2024-02-13T21:01:57.664Z,999.9
2024-02-13T21:07:36.296Z,999.9
2024-02-13T21:13:07.913Z,999.9
2024-02-13T21:18:44.246Z,999.9
2024-02-13T21:24:15.420Z,999.9
2024-02-13T21:29:47.129Z,999.9
2024-02-13T21:35:18.608Z,999.9
2024-02-13T21:40:50.559Z,999.9
2024-02-13T21:46:22.060Z,999.9
2024-02-13T21:51:53.676Z,999.9
2024-02-13T21:57:25.141Z,999.9
2024-02-13T22:02:56.768Z,999.9
2024-02-13T22:08:28.619Z,999.9
2024-02-13T22:14:00.211Z,999.9
2024-02-13T22:19:36.097Z,999.9
2024-02-13T22:25:07.671Z,999.9
2024-02-13T22:30:39.317Z,999.9
2024-02-13T22:36:11.358Z,999.9
2024-02-13T22:41:42.566Z,999.9
2024-02-13T22:47:14.468Z,999.9
2024-02-13T22:52:46.106Z,999.9
2024-02-13T22:58:17.623Z,999.9
2024-02-13T23:03:49.058Z,999.9
2024-02-13T23:09:20.666Z,999.9
2024-02-13T23:14:52.361Z,999.9
2024-02-13T23:20:30.337Z,999.9
2024-02-13T23:26:02.362Z,999.9
2024-02-13T23:31:34.489Z,999.9
2024-02-13T23:37:05.216Z,999.9
2024-02-13T23:42:37.062Z,999.9
2024-02-13T23:48:08.629Z,999.9
2024-02-13T23:53:40.185Z,999.9
2024-02-13T23:59:12.004Z,999.9
